Time;durP1;ratioP1;P1;durP2;ratioP2;P2;SDS_P1;SDS_P2;PMS_P1;PMS_P2;Temp;Humidity;BMP_temperature;BMP_pressure;BME280_temperature;BME280_humidity;BME280_pressure;Samples;Min_cycle;Max_cycle;Signal;HPM_P1;HPM_P2
2022/07/02 00:01:26;;;;;;;3.50;2.03;;;14.70;99.90;;;;;;5014348;28;20082;-61
2022/07/02 00:03:55;;;;;;;7.70;2.47;;;14.70;99.90;;;;;;5012829;28;20119;-61
2022/07/02 00:06:28;;;;;;;9.63;2.50;;;14.60;99.90;;;;;;5022677;28;20053;-61
2022/07/02 00:08:59;;;;;;;6.70;2.28;;;14.60;99.90;;;;;;5019031;28;20064;-61
2022/07/02 00:11:26;;;;;;;7.88;2.58;;;14.60;99.90;;;;;;5017339;28;20179;-59
2022/07/02 00:13:52;;;;;;;5.20;2.28;;;14.60;99.90;;;;;;5029908;28;20049;-61
2022/07/02 00:16:19;;;;;;;4.63;2.28;;;14.50;99.90;;;;;;5001193;28;20041;-61
2022/07/02 00:18:45;;;;;;;5.53;2.30;;;14.40;99.90;;;;;;5018295;28;20045;-60
2022/07/02 00:21:11;;;;;;;5.72;2.90;;;14.50;99.90;;;;;;5014436;28;20041;-61
2022/07/02 00:23:36;;;;;;;6.63;2.30;;;14.50;99.90;;;;;;5017029;28;20137;-61
2022/07/02 00:26:08;;;;;;;6.03;2.53;;;14.40;99.90;;;;;;5019637;28;20116;-61
2022/07/02 00:28:40;;;;;;;6.90;2.43;;;14.40;99.90;;;;;;4999275;28;20069;-60
2022/07/02 00:31:06;;;;;;;5.85;2.42;;;14.40;99.90;;;;;;5013633;28;20295;-60
2022/07/02 00:33:37;;;;;;;5.35;2.22;;;14.30;99.90;;;;;;5018606;28;20628;-61
2022/07/02 00:36:04;;;;;;;6.30;2.33;;;14.30;99.90;;;;;;5017979;28;20484;-62
2022/07/02 00:38:30;;;;;;;6.75;2.20;;;14.30;99.90;;;;;;5011068;28;20115;-61
2022/07/02 00:40:59;;;;;;;3.35;2.17;;;14.20;99.90;;;;;;5020701;28;20471;-60
2022/07/02 00:43:26;;;;;;;5.10;2.70;;;14.20;99.90;;;;;;5016745;28;24804;-60
2022/07/02 00:45:55;;;;;;;5.38;2.35;;;14.20;99.90;;;;;;5020371;28;20064;-60
2022/07/02 00:48:21;;;;;;;6.88;2.33;;;14.20;99.90;;;;;;5009946;28;20452;-61
2022/07/02 00:50:47;;;;;;;6.22;3.60;;;14.10;99.90;;;;;;5014526;28;20045;-60
2022/07/02 00:53:12;;;;;;;6.55;2.53;;;14.10;99.90;;;;;;5005256;28;20079;-61
2022/07/02 00:55:38;;;;;;;7.03;2.53;;;14.10;99.90;;;;;;4997633;28;20130;-60
2022/07/02 00:58:04;;;;;;;7.95;2.55;;;14.00;99.90;;;;;;5020344;28;20468;-61
2022/07/02 01:00:30;;;;;;;7.00;2.60;;;14.00;99.90;;;;;;5005312;28;20050;-61
2022/07/02 01:02:56;;;;;;;4.47;2.45;;;14.00;99.90;;;;;;5020541;28;20071;-61
2022/07/02 01:05:22;;;;;;;6.40;2.38;;;14.00;99.90;;;;;;5016350;28;20119;-60
2022/07/02 01:10:43;;;;;;;4.70;2.60;;;13.90;99.90;;;;;;5024315;28;20057;-61
2022/07/02 01:13:10;;;;;;;11.10;2.90;;;13.90;99.90;;;;;;5023094;28;20045;-60
2022/07/02 01:15:38;;;;;;;6.38;2.80;;;13.90;99.90;;;;;;4990894;28;20391;-61
2022/07/02 01:18:04;;;;;;;6.72;3.03;;;13.90;99.90;;;;;;5017029;28;20045;-61
2022/07/02 01:20:30;;;;;;;7.50;3.33;;;13.90;99.90;;;;;;5020504;28;20111;-61
2022/07/02 01:23:32;;;;;;;5.32;2.47;;;13.90;99.90;;;;;;5016828;28;20756;-59
2022/07/02 01:25:58;;;;;;;7.97;3.33;;;13.80;99.90;;;;;;5020203;28;20098;-61
2022/07/02 01:28:24;;;;;;;7.80;3.10;;;13.80;99.90;;;;;;5014134;28;20045;-61
2022/07/02 01:31:32;;;;;;;15.77;4.15;;;13.80;99.90;;;;;;5021647;28;20538;-61
2022/07/02 01:33:57;;;;;;;;;;;13.70;99.90;;;;;;5028381;28;20602;-61
2022/07/02 01:36:25;;;;;;;7.22;3.33;;;13.70;99.90;;;;;;5038820;28;19927;-61
2022/07/02 01:38:51;;;;;;;7.07;3.50;;;13.70;99.90;;;;;;5039724;28;20063;-61
2022/07/02 01:44:01;;;;;;;11.45;3.30;;;13.70;99.90;;;;;;5023401;28;20160;-61
2022/07/02 01:46:27;;;;;;;8.52;3.53;;;13.60;99.90;;;;;;5040708;28;20055;-60
2022/07/02 01:48:53;;;;;;;7.90;3.45;;;13.60;99.90;;;;;;5035457;28;20064;-61
2022/07/02 01:51:19;;;;;;;9.93;3.50;;;13.60;99.90;;;;;;5041188;28;20472;-61
2022/07/02 01:53:45;;;;;;;9.70;4.05;;;13.60;99.90;;;;;;5032371;28;20072;-60
2022/07/02 01:56:10;;;;;;;7.70;4.00;;;13.50;99.90;;;;;;5041469;28;20044;-60
2022/07/02 01:58:36;;;;;;;12.20;4.00;;;13.50;99.90;;;;;;5037839;28;20052;-60
2022/07/02 02:01:02;;;;;;;5.45;3.60;;;13.50;99.90;;;;;;5035720;28;20554;-60
2022/07/02 02:03:28;;;;;;;10.38;3.65;;;13.50;99.90;;;;;;5027117;28;20052;-60
2022/07/02 02:05:54;;;;;;;8.68;3.83;;;13.50;99.90;;;;;;5018243;28;20042;-60
2022/07/02 02:08:20;;;;;;;7.75;3.75;;;13.50;99.90;;;;;;5024011;28;20514;-61
2022/07/02 02:10:45;;;;;;;11.15;4.05;;;13.50;99.90;;;;;;5020541;28;20042;-60
2022/07/02 02:13:14;;;;;;;8.73;3.90;;;13.40;99.90;;;;;;5019954;28;20038;-59
2022/07/02 02:15:40;;;;;;;7.32;3.50;;;13.40;99.90;;;;;;5021730;28;20050;-60
2022/07/02 02:18:06;;;;;;;14.18;4.30;;;13.40;99.90;;;;;;4994170;28;20553;-61
2022/07/02 02:20:32;;;;;;;9.13;3.80;;;13.40;99.90;;;;;;5019932;28;20476;-60
2022/07/02 02:23:00;;;;;;;7.45;3.83;;;13.40;99.90;;;;;;5011126;28;20041;-60
2022/07/02 02:25:26;;;;;;;6.60;3.80;;;13.40;99.90;;;;;;5017047;28;20044;-61
2022/07/02 02:27:52;;;;;;;8.00;3.65;;;13.40;99.90;;;;;;5011079;28;20045;-61
2022/07/02 02:30:18;;;;;;;7.20;3.67;;;13.30;99.90;;;;;;5008181;28;20079;-60
2022/07/02 02:32:44;;;;;;;6.10;3.45;;;13.30;99.90;;;;;;5019598;28;20361;-61
2022/07/02 02:35:10;;;;;;;8.93;3.38;;;13.30;99.90;;;;;;5000264;28;20476;-60
2022/07/02 02:37:35;;;;;;;8.15;3.80;;;13.30;99.90;;;;;;5022026;28;20049;-61
2022/07/02 02:40:01;;;;;;;11.65;3.88;;;13.20;99.90;;;;;;5021492;28;20033;-61
2022/07/02 02:42:27;;;;;;;6.47;3.55;;;13.30;99.90;;;;;;5017632;28;20037;-60
2022/07/02 02:44:53;;;;;;;6.30;3.67;;;13.20;99.90;;;;;;5019759;28;20045;-61
2022/07/02 02:47:21;;;;;;;7.63;3.45;;;13.20;99.90;;;;;;5016479;28;20068;-61
2022/07/02 02:49:47;;;;;;;12.55;4.00;;;13.20;99.90;;;;;;5020621;28;20431;-61
2022/07/02 02:52:13;;;;;;;8.02;3.35;;;13.20;99.90;;;;;;5019809;28;20048;-61
2022/07/02 02:54:39;;;;;;;8.02;3.70;;;13.20;99.90;;;;;;5019427;28;20488;-61
2022/07/02 02:57:05;;;;;;;8.27;4.00;;;13.20;99.90;;;;;;5008418;28;20138;-61
2022/07/02 02:59:31;;;;;;;5.47;3.47;;;13.20;99.90;;;;;;5016710;28;20511;-60
2022/07/02 03:01:56;;;;;;;8.98;3.42;;;13.10;99.90;;;;;;5014161;28;20042;-60
2022/07/02 03:04:22;;;;;;;9.60;4.25;;;13.10;99.90;;;;;;5015520;28;20429;-60
2022/07/02 03:06:48;;;;;;;9.82;3.85;;;13.10;99.90;;;;;;5019735;28;20060;-61
2022/07/02 03:09:14;;;;;;;7.95;3.30;;;13.10;99.90;;;;;;5021792;28;20049;-61
2022/07/02 03:11:45;;;;;;;11.38;3.92;;;13.10;99.90;;;;;;5013537;28;20065;-61
2022/07/02 03:14:11;;;;;;;9.63;3.80;;;13.10;99.90;;;;;;5012175;28;20056;-60
2022/07/02 03:16:37;;;;;;;6.68;3.90;;;13.10;99.90;;;;;;5018251;28;20081;-61
2022/07/02 03:19:03;;;;;;;5.07;3.22;;;13.10;99.90;;;;;;5013787;28;20488;-60
2022/07/02 03:21:29;;;;;;;10.10;3.50;;;13.10;99.90;;;;;;5014234;28;20038;-61
2022/07/02 03:23:54;;;;;;;6.22;3.63;;;13.10;99.90;;;;;;5022395;28;20728;-60
2022/07/02 03:26:20;;;;;;;10.00;3.83;;;13.10;99.90;;;;;;5016051;28;20041;-61
2022/07/02 03:28:46;;;;;;;7.88;3.60;;;13.10;99.90;;;;;;5007899;28;20049;-61
2022/07/02 03:31:12;;;;;;;8.40;3.65;;;13.10;99.90;;;;;;5017220;28;20049;-61
2022/07/02 03:33:38;;;;;;;5.65;2.92;;;13.10;99.90;;;;;;5019801;28;20060;-60
2022/07/02 03:36:04;;;;;;;8.55;3.60;;;13.10;99.90;;;;;;5003102;28;20045;-61
2022/07/02 03:38:30;;;;;;;11.40;3.65;;;13.10;99.90;;;;;;4984903;28;20388;-60
2022/07/02 03:40:56;;;;;;;8.40;3.63;;;13.10;99.90;;;;;;5015472;28;20046;-60
2022/07/02 03:43:22;;;;;;;11.13;3.75;;;13.10;99.90;;;;;;5018350;28;20514;-61
2022/07/02 03:45:48;;;;;;;7.43;4.07;;;13.10;99.90;;;;;;5010151;28;20041;-60
2022/07/02 03:48:14;;;;;;;6.95;3.67;;;13.10;99.90;;;;;;5016300;28;20141;-59
2022/07/02 03:50:42;;;;;;;7.50;3.72;;;13.10;99.90;;;;;;5017602;28;20045;-60
2022/07/02 03:53:08;;;;;;;8.77;3.53;;;13.10;99.90;;;;;;5022943;28;20574;-61
2022/07/02 03:55:34;;;;;;;11.35;4.60;;;13.10;99.90;;;;;;5014114;28;20491;-60
2022/07/02 03:58:01;;;;;;;13.45;4.97;;;13.10;99.90;;;;;;5023160;28;20133;-60
2022/07/02 04:00:27;;;;;;;10.63;4.32;;;13.10;99.90;;;;;;5013402;28;20049;-58
2022/07/02 04:02:52;;;;;;;14.93;4.20;;;13.10;99.90;;;;;;5018283;28;20472;-60
2022/07/02 04:05:18;;;;;;;7.47;3.85;;;13.10;99.90;;;;;;5021023;28;20068;-61
2022/07/02 04:07:44;;;;;;;10.07;4.20;;;13.10;99.90;;;;;;5014862;28;20049;-60
2022/07/02 04:10:10;;;;;;;11.77;4.03;;;13.10;99.90;;;;;;5019119;28;20486;-60
2022/07/02 04:12:36;;;;;;;10.68;4.05;;;13.10;99.90;;;;;;5018082;28;20551;-61
2022/07/02 04:15:03;;;;;;;13.13;4.32;;;13.20;99.90;;;;;;5015671;28;20049;-60
2022/07/02 04:17:29;;;;;;;5.90;4.00;;;13.20;99.90;;;;;;5015466;28;20056;-61
2022/07/02 04:19:55;;;;;;;12.65;4.45;;;13.20;99.90;;;;;;5015688;28;20042;-60
2022/07/02 04:22:21;;;;;;;10.07;4.05;;;13.20;99.90;;;;;;5015217;28;20049;-60
2022/07/02 04:24:47;;;;;;;11.60;4.60;;;13.30;99.90;;;;;;5014910;28;20079;-60
2022/07/02 04:27:12;;;;;;;8.48;4.30;;;13.30;99.90;;;;;;5018898;28;20049;-61
2022/07/02 04:29:38;;;;;;;12.52;4.10;;;13.30;99.90;;;;;;5007079;28;20041;-61
2022/07/02 04:32:05;;;;;;;8.35;4.13;;;13.40;99.90;;;;;;5012943;28;20734;-61
2022/07/02 04:34:31;;;;;;;10.63;4.47;;;13.40;99.90;;;;;;5014714;28;20543;-60
2022/07/02 04:36:57;;;;;;;11.77;4.95;;;13.40;99.90;;;;;;5013778;28;20111;-60
2022/07/02 04:39:22;;;;;;;11.93;4.68;;;13.40;99.90;;;;;;5019374;28;20530;-61
2022/07/02 04:41:48;;;;;;;12.35;4.97;;;13.50;99.90;;;;;;5017595;28;20170;-60
2022/07/02 04:44:14;;;;;;;8.05;4.75;;;13.50;99.90;;;;;;5017647;28;20049;-61
2022/07/02 04:46:40;;;;;;;8.90;4.65;;;13.50;99.90;;;;;;5017238;28;20496;-60
2022/07/02 04:49:17;;;;;;;13.93;5.22;;;13.60;99.90;;;;;;5012198;28;20049;-59
2022/07/02 04:51:42;;;;;;;13.60;4.95;;;13.60;99.90;;;;;;5011552;28;20097;-60
2022/07/02 04:54:08;;;;;;;10.63;5.00;;;13.70;99.90;;;;;;5021145;28;20041;-59
2022/07/02 04:56:48;;;;;;;11.10;5.35;;;13.70;99.90;;;;;;4999023;28;20057;-59
2022/07/02 04:59:13;;;;;;;10.90;4.55;;;13.80;99.90;;;;;;4996642;28;20065;-60
2022/07/02 05:01:39;;;;;;;9.82;5.20;;;13.90;99.90;;;;;;5022389;28;20045;-61
2022/07/02 05:04:06;;;;;;;10.70;5.60;;;13.90;99.90;;;;;;5013379;28;20053;-60
2022/07/02 05:06:34;;;;;;;13.02;5.57;;;14.00;99.90;;;;;;5003035;28;20471;-61
2022/07/02 05:09:31;;;;;;;13.50;5.75;;;14.00;99.90;;;;;;4996872;28;20525;-61
2022/07/02 05:12:11;;;;;;;10.57;5.75;;;14.10;99.90;;;;;;5003233;28;20045;-60
2022/07/02 05:14:38;;;;;;;12.02;5.75;;;14.20;99.90;;;;;;5015091;28;20049;-61
2022/07/02 05:17:04;;;;;;;11.38;6.20;;;14.20;99.90;;;;;;5016649;28;20072;-60
2022/07/02 05:19:30;;;;;;;9.32;6.45;;;14.30;99.90;;;;;;5018926;28;20041;-61
2022/07/02 05:21:56;;;;;;;11.95;6.47;;;14.30;99.90;;;;;;5022753;28;20045;-60
2022/07/02 05:24:31;;;;;;;11.73;6.45;;;14.30;99.90;;;;;;5017178;28;20041;-61
2022/07/02 05:27:32;;;;;;;13.00;6.50;;;14.40;99.90;;;;;;5023907;28;20143;-60
2022/07/02 05:30:16;;;;;;;16.05;7.82;;;14.40;99.90;;;;;;5016023;28;20053;-61
2022/07/02 05:32:51;;;;;;;11.90;6.70;;;14.50;99.90;;;;;;5011839;28;20053;-60
2022/07/02 05:35:19;;;;;;;11.10;6.68;;;14.50;99.90;;;;;;5017849;28;20149;-60
2022/07/02 05:37:45;;;;;;;15.10;6.90;;;14.50;99.90;;;;;;5022611;28;20087;-60
2022/07/02 05:40:11;;;;;;;13.30;7.38;;;14.60;99.90;;;;;;5023272;28;20040;-61
2022/07/02 05:42:37;;;;;;;14.65;6.55;;;14.60;99.90;;;;;;5023585;28;20037;-61
2022/07/02 05:45:03;;;;;;;14.35;7.10;;;14.70;99.90;;;;;;5024765;28;20499;-60
2022/07/02 05:47:29;;;;;;;12.95;6.57;;;14.80;99.90;;;;;;5019523;28;20495;-61
2022/07/02 05:49:55;;;;;;;11.90;6.20;;;14.80;99.90;;;;;;5017943;28;20045;-60
2022/07/02 05:52:21;;;;;;;10.20;5.70;;;14.90;99.90;;;;;;5017035;28;20046;-61
2022/07/02 05:54:47;;;;;;;10.30;6.18;;;14.90;99.90;;;;;;5012457;28;20060;-60
2022/07/02 05:57:13;;;;;;;13.65;6.50;;;15.00;99.90;;;;;;5020296;28;20041;-60
2022/07/02 05:59:39;;;;;;;10.27;5.97;;;15.10;99.90;;;;;;5016983;28;20050;-61
2022/07/02 06:02:06;;;;;;;11.10;5.80;;;15.10;99.90;;;;;;5016167;28;20132;-61
2022/07/02 06:04:32;;;;;;;10.02;5.50;;;15.20;99.90;;;;;;5016084;28;20106;-61
2022/07/02 06:09:44;;;;;;;8.52;5.43;;;15.40;99.90;;;;;;5020752;28;20064;-60
2022/07/02 06:12:10;;;;;;;8.20;4.88;;;15.50;99.90;;;;;;5016905;28;20398;-61
2022/07/02 06:14:36;;;;;;;12.10;5.10;;;15.60;99.90;;;;;;5022799;28;20046;-60
2022/07/02 06:17:02;;;;;;;10.18;5.25;;;15.60;99.90;;;;;;5019057;28;20050;-59
2022/07/02 06:19:28;;;;;;;11.25;4.88;;;15.70;99.90;;;;;;5022850;28;20045;-60
2022/07/02 06:21:53;;;;;;;9.00;5.10;;;15.80;99.90;;;;;;5016495;28;20038;-59
2022/07/02 06:24:19;;;;;;;9.15;5.03;;;15.90;99.90;;;;;;5015578;28;20061;-59
2022/07/02 06:26:45;;;;;;;8.80;5.18;;;16.00;99.90;;;;;;5019831;28;20041;-60
2022/07/02 06:29:11;;;;;;;9.50;4.88;;;16.00;99.90;;;;;;5023621;28;20488;-60
2022/07/02 06:31:37;;;;;;;11.27;4.68;;;16.10;99.90;;;;;;5029793;28;20049;-59
2022/07/02 06:34:04;;;;;;;9.85;4.97;;;16.20;99.90;;;;;;5020726;28;20574;-60
2022/07/02 06:36:30;;;;;;;8.73;4.50;;;16.30;99.90;;;;;;5026157;28;20399;-61
2022/07/02 06:38:56;;;;;;;9.20;4.90;;;16.40;99.90;;;;;;5021119;28;20052;-60
2022/07/02 06:44:06;;;;;;;12.82;4.80;;;16.60;99.90;;;;;;5023026;28;20132;-60
2022/07/02 06:46:36;;;;;;;7.97;4.10;;;16.70;99.90;;;;;;5017075;28;20509;-61
2022/07/02 06:49:02;;;;;;;8.77;3.97;;;16.70;99.90;;;;;;5012508;28;20095;-61
2022/07/02 06:51:28;;;;;;;7.85;3.80;;;16.80;99.90;;;;;;5011550;28;20037;-61
2022/07/02 06:54:00;;;;;;;6.93;3.90;;;17.00;99.90;;;;;;5005038;28;20088;-60
2022/07/02 06:56:31;;;;;;;7.53;3.93;;;17.00;99.90;;;;;;5011560;28;20133;-61
2022/07/02 06:58:57;;;;;;;8.05;3.70;;;17.10;99.90;;;;;;5012158;28;20348;-61
2022/07/02 07:01:24;;;;;;;10.48;3.80;;;17.20;99.90;;;;;;5011194;28;20056;-61
2022/07/02 07:03:50;;;;;;;7.05;3.63;;;17.30;99.90;;;;;;5008855;28;20129;-60
2022/07/02 07:06:15;;;;;;;10.57;3.80;;;17.40;99.90;;;;;;5009905;28;20458;-61
2022/07/02 07:08:41;;;;;;;11.55;3.58;;;17.50;99.90;;;;;;5006910;28;20697;-61
2022/07/02 07:11:07;;;;;;;10.07;3.95;;;17.50;99.90;;;;;;5006355;28;20046;-60
2022/07/02 07:13:33;;;;;;;6.97;3.55;;;17.60;99.90;;;;;;5001560;28;20047;-60
2022/07/02 07:15:59;;;;;;;8.32;3.78;;;17.70;99.90;;;;;;5007357;28;20648;-60
2022/07/02 07:18:25;;;;;;;6.80;3.33;;;17.80;99.90;;;;;;5009706;28;20516;-60
2022/07/02 07:20:53;;;;;;;7.28;2.97;;;17.90;99.90;;;;;;5012909;28;20045;-62
2022/07/02 07:23:18;;;;;;;12.02;2.95;;;18.00;99.90;;;;;;5003515;28;20415;-62
2022/07/02 07:25:44;;;;;;;9.30;2.88;;;18.10;99.90;;;;;;5009059;28;20049;-61
2022/07/02 07:28:10;;;;;;;6.13;2.33;;;18.10;99.90;;;;;;4998607;28;20175;-61
2022/07/02 07:30:36;;;;;;;5.03;2.53;;;18.20;99.90;;;;;;4986321;28;20119;-62
2022/07/02 07:33:01;;;;;;;8.70;3.03;;;18.20;99.90;;;;;;5007352;28;21868;-62
2022/07/02 07:35:27;;;;;;;5.22;2.72;;;18.30;99.90;;;;;;5008085;28;20049;-62
2022/07/02 07:38:00;;;;;;;6.93;3.00;;;18.40;99.90;;;;;;5002424;28;20049;-62
2022/07/02 07:40:26;;;;;;;8.60;2.85;;;18.50;99.90;;;;;;5006785;28;20053;-62
2022/07/02 07:42:52;;;;;;;7.45;2.63;;;18.60;99.90;;;;;;4998818;28;20484;-61
2022/07/02 07:45:18;;;;;;;6.70;2.30;;;18.60;99.90;;;;;;5012506;28;20873;-63
2022/07/02 07:47:44;;;;;;;6.80;2.25;;;18.70;99.90;;;;;;5010744;28;20095;-63
2022/07/02 07:50:10;;;;;;;6.20;1.80;;;18.70;99.90;;;;;;5012271;28;20529;-64
2022/07/02 07:52:36;;;;;;;6.78;2.00;;;18.80;99.90;;;;;;5005777;28;20088;-63
2022/07/02 07:55:01;;;;;;;7.97;2.33;;;18.80;99.60;;;;;;5015613;28;20049;-63
2022/07/02 07:57:27;;;;;;;5.07;2.22;;;18.80;99.30;;;;;;5007173;28;20095;-63
2022/07/02 07:59:53;;;;;;;4.57;2.20;;;18.80;99.20;;;;;;5003432;28;20049;-63
2022/07/02 08:02:19;;;;;;;5.40;1.70;;;18.90;99.20;;;;;;5017385;28;20033;-63
2022/07/02 08:04:45;;;;;;;6.88;2.00;;;19.00;98.80;;;;;;5010402;28;20057;-63
2022/07/02 08:07:11;;;;;;;4.28;1.80;;;19.10;98.60;;;;;;5003202;28;20401;-63
2022/07/02 08:09:37;;;;;;;6.18;1.90;;;19.20;97.80;;;;;;5023903;28;20049;-63
2022/07/02 08:12:04;;;;;;;6.40;1.88;;;19.20;97.70;;;;;;5016311;28;20067;-63
2022/07/02 08:14:30;;;;;;;5.70;2.00;;;19.30;97.90;;;;;;5008368;28;20076;-62
2022/07/02 08:16:56;;;;;;;5.43;2.00;;;19.40;97.70;;;;;;5017769;28;20133;-62
2022/07/02 08:19:22;;;;;;;3.90;1.65;;;19.50;97.40;;;;;;5021101;28;20579;-62
2022/07/02 08:21:48;;;;;;;7.18;2.10;;;19.60;96.60;;;;;;5010226;28;20142;-63
2022/07/02 08:24:13;;;;;;;11.00;2.15;;;19.60;96.40;;;;;;5012609;28;20111;-64
2022/07/02 08:26:39;;;;;;;6.50;2.10;;;19.60;96.10;;;;;;5021741;28;20052;-63
2022/07/02 08:29:05;;;;;;;5.28;1.70;;;19.60;96.00;;;;;;5026414;28;20057;-63
2022/07/02 08:31:31;;;;;;;5.93;1.70;;;19.70;96.10;;;;;;5012624;28;20045;-63
2022/07/02 08:33:57;;;;;;;3.70;1.67;;;19.80;95.60;;;;;;5020534;28;20053;-64
2022/07/02 08:36:22;;;;;;;6.05;1.90;;;19.90;95.30;;;;;;5009422;28;20072;-64
2022/07/02 08:38:48;;;;;;;3.88;1.60;;;20.00;95.10;;;;;;5021538;28;20045;-64
2022/07/02 08:41:16;;;;;;;4.45;1.70;;;20.10;95.10;;;;;;5012115;28;20049;-64
2022/07/02 08:43:44;;;;;;;6.03;2.10;;;20.20;95.40;;;;;;5026049;28;20724;-64
2022/07/02 08:46:12;;;;;;;5.85;1.95;;;20.30;95.10;;;;;;5024221;28;20056;-64
2022/07/02 08:48:39;;;;;;;4.75;1.92;;;20.40;94.20;;;;;;5023927;28;20049;-63
2022/07/02 08:51:08;;;;;;;6.90;1.65;;;20.50;93.60;;;;;;5017973;28;20053;-63
2022/07/02 08:53:33;;;;;;;5.28;1.90;;;20.50;93.80;;;;;;4998581;28;20037;-63
2022/07/02 08:56:00;;;;;;;4.05;1.90;;;20.60;93.40;;;;;;5006973;28;20044;-63
2022/07/02 08:58:26;;;;;;;5.25;1.90;;;20.70;93.20;;;;;;5019169;28;20126;-63
2022/07/02 09:00:53;;;;;;;4.90;1.67;;;20.80;93.00;;;;;;5023091;28;20080;-63
2022/07/02 09:03:20;;;;;;;6.00;1.73;;;20.90;92.60;;;;;;5011328;28;20492;-63
2022/07/02 09:05:49;;;;;;;3.63;1.67;;;21.00;92.30;;;;;;5005828;28;20072;-63
2022/07/02 09:08:16;;;;;;;6.43;1.50;;;21.10;92.10;;;;;;5009960;28;20079;-63
2022/07/02 09:10:42;;;;;;;3.92;1.27;;;21.20;91.80;;;;;;5009736;28;20467;-63
2022/07/02 09:13:11;;;;;;;5.30;1.30;;;21.30;90.70;;;;;;5015838;28;20065;-63
2022/07/02 09:15:37;;;;;;;4.22;1.48;;;21.40;90.70;;;;;;5003707;28;20065;-64
2022/07/02 09:18:04;;;;;;;5.85;1.38;;;21.50;90.40;;;;;;5023019;28;20045;-64
2022/07/02 09:20:29;;;;;;;2.35;1.00;;;21.60;89.80;;;;;;5022916;28;20521;-63
2022/07/02 09:22:55;;;;;;;2.58;0.98;;;21.80;87.60;;;;;;5015329;28;20652;-63
2022/07/02 09:25:26;;;;;;;2.72;1.13;;;21.80;85.50;;;;;;5012408;28;20113;-63
2022/07/02 09:28:05;;;;;;;1.63;0.90;;;22.00;84.70;;;;;;5019872;28;20051;-63
2022/07/02 09:30:35;;;;;;;3.15;0.80;;;22.00;82.60;;;;;;5017638;28;20053;-63
2022/07/02 09:35:53;;;;;;;3.42;1.00;;;22.20;81.80;;;;;;5003008;28;20057;-63
2022/07/02 09:38:19;;;;;;;3.92;0.95;;;22.20;79.30;;;;;;5015698;28;20064;-63
2022/07/02 09:40:59;;;;;;;3.35;1.00;;;22.40;80.10;;;;;;5010668;28;20138;-64
2022/07/02 09:43:28;;;;;;;2.92;1.00;;;22.50;79.10;;;;;;5023537;28;20053;-63
2022/07/02 09:45:56;;;;;;;4.50;1.10;;;22.60;77.40;;;;;;5012288;28;20566;-65
2022/07/02 09:48:22;;;;;;;3.08;1.05;;;22.70;77.00;;;;;;5027143;28;20050;-64
2022/07/02 09:50:48;;;;;;;2.28;1.10;;;22.60;75.30;;;;;;5026131;28;20813;-63
2022/07/02 09:53:13;;;;;;;4.18;1.20;;;22.50;75.60;;;;;;5019753;28;20500;-64
2022/07/02 09:55:39;;;;;;;3.00;0.80;;;22.60;74.60;;;;;;5020719;28;20053;-64
2022/07/02 09:58:05;;;;;;;1.73;0.90;;;22.70;74.80;;;;;;5006348;28;20044;-63
2022/07/02 10:00:33;;;;;;;3.78;1.00;;;22.80;75.90;;;;;;5019030;28;20095;-63
2022/07/02 10:03:00;;;;;;;3.30;1.00;;;22.90;74.50;;;;;;5009653;28;20492;-63
2022/07/02 10:05:31;;;;;;;3.92;0.80;;;23.00;72.40;;;;;;5012757;28;20052;-63
2022/07/02 10:07:58;;;;;;;2.50;0.80;;;22.90;71.00;;;;;;5016924;28;20059;-63
2022/07/02 10:10:40;;;;;;;2.95;0.90;;;23.00;71.50;;;;;;5014597;28;20088;-63
2022/07/02 10:13:11;;;;;;;4.18;0.70;;;23.20;71.70;;;;;;5019080;28;20083;-63
2022/07/02 10:16:00;;;;;;;3.83;0.98;;;23.40;70.70;;;;;;5009870;28;20084;-63
2022/07/02 10:18:28;;;;;;;4.43;1.10;;;23.50;69.60;;;;;;5019557;28;20045;-63
2022/07/02 10:20:56;;;;;;;1.77;0.90;;;23.40;69.00;;;;;;5007394;28;20046;-63
2022/07/02 10:23:23;;;;;;;3.67;0.82;;;23.40;69.10;;;;;;5015625;28;20044;-62
2022/07/02 10:25:50;;;;;;;3.55;0.80;;;23.50;69.30;;;;;;5017452;28;20450;-62
2022/07/02 10:28:16;;;;;;;3.63;0.75;;;23.60;69.10;;;;;;5011903;28;20053;-63
2022/07/02 10:30:43;;;;;;;2.70;1.00;;;23.70;68.20;;;;;;5014545;28;20054;-63
2022/07/02 10:33:46;;;;;;;2.60;0.73;;;23.70;67.80;;;;;;5014569;28;20061;-63
2022/07/02 10:36:16;;;;;;;2.10;0.77;;;23.80;68.60;;;;;;5012406;28;20050;-63
2022/07/02 10:38:45;;;;;;;1.92;0.80;;;23.80;67.50;;;;;;5016185;28;20160;-63
2022/07/02 10:41:12;;;;;;;2.47;1.20;;;23.80;67.40;;;;;;5015184;28;20056;-63
2022/07/02 10:43:39;;;;;;;6.82;0.70;;;23.80;67.70;;;;;;5012046;28;20045;-63
2022/07/02 10:46:11;;;;;;;5.15;0.80;;;23.90;66.60;;;;;;5004766;28;20054;-63
2022/07/02 10:48:50;;;;;;;;;;;23.80;65.20;;;;;;5004986;28;20049;-63
2022/07/02 10:51:23;;;;;;;2.45;0.70;;;23.80;65.80;;;;;;5010450;28;19921;-63
2022/07/02 10:54:00;;;;;;;3.38;0.85;;;23.80;65.40;;;;;;4985870;28;20049;-63
2022/07/02 10:56:27;;;;;;;2.88;0.85;;;24.00;65.20;;;;;;4988711;28;20089;-63
2022/07/02 10:58:53;;;;;;;3.95;1.00;;;24.20;65.10;;;;;;5007601;28;20132;-62
2022/07/02 11:01:21;;;;;;;2.30;0.80;;;24.20;64.60;;;;;;5013454;28;20045;-63
2022/07/02 11:03:54;;;;;;;2.30;0.73;;;24.00;64.20;;;;;;5002178;28;20152;-63
2022/07/02 11:06:25;;;;;;;3.17;0.95;;;23.70;63.10;;;;;;4998585;28;20580;-63
2022/07/02 11:08:53;;;;;;;4.25;0.70;;;23.40;63.40;;;;;;5007011;28;20053;-63
2022/07/02 11:11:22;;;;;;;1.58;0.70;;;23.20;63.40;;;;;;4974318;28;20124;-63
2022/07/02 11:13:49;;;;;;;5.85;0.70;;;23.10;63.90;;;;;;4983601;28;20053;-63
2022/07/02 11:16:22;;;;;;;2.67;0.57;;;23.10;63.80;;;;;;5002038;28;20104;-63
2022/07/02 11:18:49;;;;;;;2.03;0.60;;;23.00;63.10;;;;;;5003857;28;20053;-63
2022/07/02 11:21:16;;;;;;;1.08;0.50;;;22.80;63.00;;;;;;4996094;28;20048;-63
2022/07/02 11:23:42;;;;;;;1.17;0.65;;;22.90;62.90;;;;;;4986628;28;20088;-63
2022/07/02 11:26:08;;;;;;;2.35;0.55;;;23.20;63.50;;;;;;5001420;28;20069;-63
2022/07/02 11:28:35;;;;;;;3.80;0.63;;;23.60;63.70;;;;;;5003170;28;21930;-63
2022/07/02 11:31:05;;;;;;;2.53;0.70;;;23.90;62.70;;;;;;4984819;28;20198;-63
2022/07/02 11:33:34;;;;;;;1.00;0.60;;;23.90;61.90;;;;;;5005192;28;20064;-63
2022/07/02 11:36:00;;;;;;;2.92;0.50;;;23.80;61.50;;;;;;5006218;28;20504;-63
2022/07/02 11:38:26;;;;;;;3.55;0.60;;;23.70;61.50;;;;;;4998411;28;20107;-62
2022/07/02 11:40:52;;;;;;;3.17;0.52;;;23.70;62.00;;;;;;5003650;28;20480;-63
2022/07/02 11:43:20;;;;;;;2.13;0.70;;;23.60;62.50;;;;;;4995130;28;20073;-62
2022/07/02 11:45:47;;;;;;;1.27;0.50;;;23.50;61.40;;;;;;4992940;28;20045;-63
2022/07/02 11:48:23;;;;;;;1.63;0.60;;;23.40;61.50;;;;;;5009461;28;20129;-63
2022/07/02 11:50:57;;;;;;;2.40;0.57;;;23.40;61.60;;;;;;5008915;28;20092;-63
2022/07/02 11:53:23;;;;;;;1.20;0.65;;;23.30;61.80;;;;;;4969991;28;20049;-63
2022/07/02 11:55:50;;;;;;;3.08;0.60;;;23.40;62.70;;;;;;4998316;28;20145;-64
2022/07/02 11:58:17;;;;;;;2.25;0.47;;;23.80;62.80;;;;;;5001292;28;20072;-64
2022/07/02 12:00:43;;;;;;;2.80;0.50;;;24.10;61.20;;;;;;5001228;28;20056;-65
2022/07/02 12:03:11;;;;;;;2.67;0.70;;;24.30;60.10;;;;;;4974928;28;20048;-65
2022/07/02 12:05:48;;;;;;;5.47;0.60;;;24.20;59.40;;;;;;5007848;28;20056;-63
2022/07/02 12:08:17;;;;;;;2.33;0.90;;;24.10;59.70;;;;;;5005034;28;20049;-64
2022/07/02 12:10:43;;;;;;;3.28;0.80;;;24.10;60.10;;;;;;5003440;28;20079;-64
2022/07/02 12:13:10;;;;;;;2.60;0.77;;;24.20;60.30;;;;;;5002627;28;20137;-63
2022/07/02 12:15:49;;;;;;;2.47;0.60;;;24.30;59.80;;;;;;5002698;28;20049;-65
2022/07/02 12:18:20;;;;;;;1.98;0.60;;;24.20;59.20;;;;;;5001558;28;20125;-65
2022/07/02 12:20:46;;;;;;;2.47;0.80;;;24.10;59.90;;;;;;4984170;28;20136;-63
2022/07/02 12:23:13;;;;;;;3.53;0.63;;;24.00;60.10;;;;;;4992993;28;20982;-63
2022/07/02 12:25:46;;;;;;;4.22;0.50;;;24.00;60.00;;;;;;4963380;28;20049;-64
2022/07/02 12:30:57;;;;;;;2.22;0.70;;;24.00;60.30;;;;;;5001034;28;20647;-64
2022/07/02 12:33:33;;;;;;;2.03;0.70;;;24.00;60.90;;;;;;5001453;28;20136;-63
2022/07/02 12:36:04;;;;;;;4.18;0.98;;;24.00;60.70;;;;;;5001949;28;20544;-62
2022/07/02 12:38:40;;;;;;;2.60;0.57;;;24.10;61.30;;;;;;4987603;28;20586;-63
2022/07/02 12:41:06;;;;;;;3.42;0.80;;;24.10;60.70;;;;;;5013690;28;20081;-64
2022/07/02 12:43:32;;;;;;;0.60;0.43;;;24.20;61.20;;;;;;4998613;28;20523;-65
2022/07/02 12:46:06;;;;;;;2.22;0.75;;;24.30;60.40;;;;;;5002981;28;20046;-63
2022/07/02 12:48:41;;;;;;;1.80;0.63;;;24.30;59.90;;;;;;4995350;28;20381;-63
2022/07/02 12:51:12;;;;;;;1.35;0.52;;;24.40;60.10;;;;;;5005001;28;20059;-64
2022/07/02 12:53:38;;;;;;;3.67;0.95;;;24.80;60.60;;;;;;4978422;28;20180;-62
2022/07/02 12:56:06;;;;;;;1.33;0.70;;;25.10;60.50;;;;;;4991498;28;20050;-63
2022/07/02 12:58:32;;;;;;;1.98;0.70;;;25.40;59.50;;;;;;4988693;28;20050;-64
2022/07/02 13:00:59;;;;;;;0.82;0.50;;;25.50;58.10;;;;;;5009368;28;20187;-62
2022/07/02 13:03:25;;;;;;;3.08;0.60;;;25.60;58.00;;;;;;5001935;28;20056;-63
2022/07/02 13:05:58;;;;;;;1.95;0.68;;;25.90;57.50;;;;;;4980152;28;20442;-62